createdAt,value
2022-10-18T00:00:52.604Z,19.01
2022-10-18T00:03:20.316Z,18.80
2022-10-18T00:05:48.440Z,18.76
2022-10-18T00:08:17.751Z,18.65
2022-10-18T00:10:45.770Z,18.43
2022-10-18T00:13:13.829Z,18.89
2022-10-18T00:15:50.150Z,18.84
2022-10-18T00:18:18.357Z,18.90
2022-10-18T00:20:46.384Z,18.83
2022-10-18T00:23:14.117Z,18.77
2022-10-18T00:25:41.900Z,18.66
2022-10-18T00:28:09.645Z,18.76
2022-10-18T00:30:37.568Z,18.49
2022-10-18T00:33:06.660Z,18.79
2022-10-18T00:35:35.691Z,18.70
2022-10-18T00:38:03.385Z,18.62
2022-10-18T00:40:31.047Z,18.55
2022-10-18T00:42:58.813Z,18.54
2022-10-18T00:45:27.250Z,18.63
2022-10-18T00:47:59.462Z,18.70
2022-10-18T00:50:33.516Z,18.61
2022-10-18T00:53:04.429Z,18.80
2022-10-18T00:55:34.277Z,18.70
2022-10-18T00:58:02.696Z,18.78
2022-10-18T01:00:30.682Z,18.77
2022-10-18T01:03:00.142Z,18.53
2022-10-18T01:05:29.399Z,18.42
2022-10-18T01:08:15.888Z,18.34
2022-10-18T01:10:53.427Z,18.26
2022-10-18T01:13:33.195Z,18.48
2022-10-18T01:16:10.219Z,18.44
2022-10-18T01:18:43.341Z,18.35
2022-10-18T01:21:29.616Z,18.52
2022-10-18T01:24:27.436Z,18.55
2022-10-18T01:27:28.962Z,18.58
2022-10-18T01:30:19.215Z,18.55
2022-10-18T01:32:52.982Z,18.47
2022-10-18T01:35:24.438Z,18.53
2022-10-18T01:37:56.104Z,18.37
2022-10-18T01:40:25.650Z,18.49
2022-10-18T01:42:53.943Z,18.18
2022-10-18T01:45:24.341Z,18.48
2022-10-18T01:47:55.383Z,18.27
2022-10-18T01:50:30.824Z,17.88
2022-10-18T01:52:59.331Z,18.18
2022-10-18T01:55:35.110Z,18.08
2022-10-18T01:58:10.515Z,17.90
2022-10-18T02:00:42.815Z,18.22
2022-10-18T02:03:22.097Z,17.99
2022-10-18T02:05:55.754Z,18.08
2022-10-18T02:08:30.027Z,18.01
2022-10-18T02:11:02.191Z,18.04
2022-10-18T02:13:34.378Z,17.95
2022-10-18T02:16:07.329Z,17.98
2022-10-18T02:18:40.724Z,17.95
2022-10-18T02:21:11.852Z,18.02
2022-10-18T02:23:40.033Z,17.99
2022-10-18T02:26:08.143Z,17.77
2022-10-18T02:28:35.967Z,18.04
2022-10-18T02:31:11.746Z,18.00
2022-10-18T02:33:46.835Z,18.09
2022-10-18T02:36:19.387Z,18.02
2022-10-18T02:38:48.496Z,18.04
2022-10-18T02:41:24.562Z,18.03
2022-10-18T02:43:52.312Z,18.03
2022-10-18T02:46:20.592Z,17.89
2022-10-18T02:48:50.271Z,18.01
2022-10-18T02:51:18.104Z,18.09
2022-10-18T02:53:45.820Z,18.09
2022-10-18T02:56:13.555Z,18.13
2022-10-18T02:58:41.225Z,18.09
2022-10-18T03:01:09.006Z,17.97
2022-10-18T03:03:36.722Z,17.90
2022-10-18T03:06:06.086Z,17.88
2022-10-18T03:08:33.784Z,17.96
2022-10-18T03:11:01.492Z,17.76
2022-10-18T03:15:58.009Z,17.96
2022-10-18T03:18:25.827Z,17.89
2022-10-18T03:20:53.483Z,17.81
2022-10-18T03:23:22.624Z,17.98
2022-10-18T03:25:50.291Z,17.89
2022-10-18T03:28:17.936Z,17.76
2022-10-18T03:30:45.626Z,17.84
2022-10-18T03:33:13.357Z,18.08
2022-10-18T03:35:41.161Z,18.04
2022-10-18T03:38:08.879Z,18.10
2022-10-18T03:40:38.118Z,17.98
2022-10-18T03:43:05.738Z,17.94
2022-10-18T03:45:33.492Z,18.09
2022-10-18T03:48:01.216Z,18.01
2022-10-18T03:50:28.952Z,17.73
2022-10-18T03:52:56.644Z,17.57
2022-10-18T03:55:24.576Z,17.48
2022-10-18T03:57:53.623Z,17.62
2022-10-18T04:00:21.466Z,17.62
2022-10-18T04:02:52.021Z,17.71
2022-10-18T04:05:24.326Z,17.82
2022-10-18T04:07:52.022Z,17.75
2022-10-18T04:10:19.877Z,17.66
2022-10-18T04:12:47.675Z,17.93
2022-10-18T04:15:16.997Z,17.79
2022-10-18T04:17:44.694Z,17.37
2022-10-18T04:20:13.344Z,17.43
2022-10-18T04:22:41.134Z,17.71
2022-10-18T04:25:08.997Z,17.44
2022-10-18T04:27:37.235Z,17.48
2022-10-18T04:30:05.884Z,17.87
2022-10-18T04:32:35.456Z,17.80
2022-10-18T04:35:03.269Z,17.85
2022-10-18T04:37:31.325Z,17.94
2022-10-18T04:39:59.433Z,17.70
2022-10-18T04:42:27.357Z,17.94
2022-10-18T04:44:55.180Z,17.53
2022-10-18T04:47:22.920Z,17.65
2022-10-18T04:49:51.999Z,17.79
2022-10-18T04:52:20.201Z,17.87
2022-10-18T04:54:47.869Z,17.70
2022-10-18T04:57:15.528Z,17.87
2022-10-18T04:59:43.308Z,17.80
2022-10-18T05:02:11.105Z,17.66
2022-10-18T05:04:38.851Z,17.82
2022-10-18T05:07:07.961Z,17.85
2022-10-18T05:09:35.806Z,17.92
2022-10-18T05:12:03.590Z,17.77
2022-10-18T05:14:31.342Z,17.96
2022-10-18T05:16:59.014Z,17.44
2022-10-18T05:19:26.620Z,17.85
2022-10-18T05:21:54.330Z,17.64
2022-10-18T05:24:26.872Z,17.67
2022-10-18T05:26:56.046Z,17.58
2022-10-18T05:29:24.390Z,17.69
2022-10-18T05:31:52.244Z,17.61
2022-10-18T05:34:20.675Z,17.71
2022-10-18T05:36:49.473Z,17.18
2022-10-18T05:39:17.135Z,17.47
2022-10-18T05:41:46.217Z,17.42
2022-10-18T05:44:13.830Z,17.32
2022-10-18T05:46:41.643Z,17.59
2022-10-18T05:49:11.197Z,17.61
2022-10-18T05:51:38.977Z,17.78
2022-10-18T05:54:06.962Z,17.77
2022-10-18T05:56:34.738Z,17.64
2022-10-18T05:59:05.094Z,17.82
2022-10-18T06:01:32.866Z,17.51
2022-10-18T06:04:00.617Z,17.31
2022-10-18T06:06:28.391Z,17.44
2022-10-18T06:08:56.234Z,17.53
2022-10-18T06:11:24.203Z,17.63
2022-10-18T06:13:53.258Z,17.77
2022-10-18T06:16:27.275Z,17.95
2022-10-18T06:18:59.884Z,17.81
2022-10-18T06:21:27.850Z,17.49
2022-10-18T06:23:58.389Z,17.88
2022-10-18T06:26:27.225Z,17.95
2022-10-18T06:28:54.952Z,17.96
2022-10-18T06:31:24.074Z,17.87
2022-10-18T06:33:51.753Z,17.93
2022-10-18T06:36:22.054Z,18.00
2022-10-18T06:38:50.553Z,18.04
2022-10-18T06:41:19.352Z,17.87
2022-10-18T06:43:49.824Z,17.33
2022-10-18T06:46:17.742Z,17.30
2022-10-18T06:48:46.923Z,17.51
2022-10-18T06:51:15.195Z,17.49
2022-10-18T06:53:53.467Z,17.32
2022-10-18T06:56:31.116Z,17.49
2022-10-18T07:01:31.658Z,17.75
2022-10-18T07:04:00.812Z,17.67
2022-10-18T07:06:28.676Z,17.61
2022-10-18T07:08:57.062Z,17.75
2022-10-18T07:11:27.106Z,17.49
2022-10-18T07:14:00.703Z,17.58
2022-10-18T07:16:28.518Z,17.91
2022-10-18T07:18:56.464Z,17.98
2022-10-18T07:21:27.392Z,18.15
2022-10-18T07:23:55.249Z,17.95
2022-10-18T07:26:24.792Z,17.82
2022-10-18T07:28:55.860Z,17.64
2022-10-18T07:31:24.059Z,17.99
2022-10-18T07:33:52.019Z,17.98
2022-10-18T07:36:21.270Z,18.01
2022-10-18T07:38:51.877Z,17.91
2022-10-18T07:41:20.082Z,18.01
2022-10-18T07:43:51.888Z,18.30
2022-10-18T07:46:20.778Z,17.84
2022-10-18T07:48:48.588Z,17.30
2022-10-18T07:51:16.621Z,17.99
2022-10-18T07:53:44.739Z,17.98
2022-10-18T07:56:16.914Z,17.76
2022-10-18T07:58:44.884Z,17.83
2022-10-18T08:01:13.675Z,17.98
2022-10-18T08:03:42.938Z,18.08
2022-10-18T08:06:12.814Z,18.36
2022-10-18T08:08:41.765Z,18.40
2022-10-18T08:11:11.516Z,18.51
2022-10-18T08:13:40.682Z,18.44
2022-10-18T08:16:10.672Z,18.39
2022-10-18T08:18:39.271Z,18.32
2022-10-18T08:21:08.729Z,18.34
2022-10-18T08:23:37.208Z,18.21
2022-10-18T08:26:06.414Z,18.30
2022-10-18T08:28:36.678Z,18.41
2022-10-18T08:31:06.332Z,18.33
2022-10-18T08:33:35.748Z,17.56
2022-10-18T08:36:06.084Z,18.03
2022-10-18T08:38:34.450Z,18.26
2022-10-18T08:41:07.783Z,18.38
2022-10-18T08:43:42.795Z,18.26
2022-10-18T08:46:13.872Z,18.32
2022-10-18T08:48:45.263Z,18.49
2022-10-18T08:51:24.003Z,18.22
2022-10-18T08:54:00.204Z,18.66
2022-10-18T08:56:28.231Z,18.76
2022-10-18T08:58:56.354Z,18.48
2022-10-18T09:01:41.243Z,18.83
2022-10-18T09:04:23.937Z,18.68
2022-10-18T09:07:01.765Z,18.71
2022-10-18T09:09:37.996Z,19.14
2022-10-18T09:12:21.155Z,18.66
2022-10-18T09:15:04.966Z,18.62
2022-10-18T09:17:45.346Z,18.84
2022-10-18T09:20:22.989Z,19.24
2022-10-18T09:22:55.238Z,19.27
2022-10-18T09:25:24.984Z,18.52
2022-10-18T09:27:55.617Z,18.89
2022-10-18T09:30:45.293Z,18.62
2022-10-18T09:33:34.540Z,18.56
2022-10-18T09:36:04.233Z,18.85
2022-10-18T09:38:38.858Z,18.97
2022-10-18T09:41:09.775Z,18.75
2022-10-18T09:43:48.497Z,18.97
2022-10-18T09:46:18.046Z,19.17
2022-10-18T09:48:52.354Z,19.30
2022-10-18T09:51:23.125Z,19.34
2022-10-18T09:54:04.686Z,19.11
2022-10-18T09:56:41.072Z,19.39
2022-10-18T09:59:26.941Z,19.19
2022-10-18T10:01:54.886Z,18.99
2022-10-18T10:04:24.042Z,19.46
2022-10-18T10:06:53.448Z,19.47
2022-10-18T10:09:29.298Z,19.54
2022-10-18T10:11:57.715Z,19.67
2022-10-18T10:14:27.327Z,19.34
2022-10-18T10:16:56.935Z,19.08
2022-10-18T10:19:32.476Z,18.93
2022-10-18T10:22:05.140Z,19.15
2022-10-18T10:24:49.802Z,19.28
2022-10-18T10:27:24.798Z,18.85
2022-10-18T10:29:57.725Z,19.66
2022-10-18T10:32:29.612Z,19.35
2022-10-18T10:34:59.732Z,19.45
2022-10-18T10:37:34.373Z,19.39
2022-10-18T10:40:18.885Z,19.24
2022-10-18T10:43:04.277Z,19.17
2022-10-18T10:45:56.196Z,18.75
2022-10-18T10:48:26.282Z,19.27
2022-10-18T10:51:05.964Z,19.24
2022-10-18T10:53:44.949Z,19.24
2022-10-18T10:56:21.933Z,18.93
2022-10-18T10:58:50.068Z,19.15
2022-10-18T11:01:21.245Z,18.67
2022-10-18T11:03:51.218Z,18.48
2022-10-18T11:06:53.155Z,18.62
2022-10-18T11:09:31.030Z,18.28
2022-10-18T11:12:19.214Z,18.48
2022-10-18T11:14:52.196Z,18.50
2022-10-18T11:17:26.335Z,18.49
2022-10-18T11:20:03.519Z,18.82
2022-10-18T11:22:38.704Z,18.84
2022-10-18T11:25:07.062Z,19.06
2022-10-18T11:27:40.357Z,19.79
2022-10-18T11:30:25.860Z,18.74
2022-10-18T11:33:00.443Z,18.95
2022-10-18T11:35:38.769Z,19.24
2022-10-18T11:38:19.438Z,18.97
2022-10-18T11:40:57.457Z,18.84
2022-10-18T11:43:50.552Z,18.52
2022-10-18T11:46:32.151Z,18.66
2022-10-18T11:49:11.525Z,18.68
2022-10-18T11:52:09.246Z,18.73
2022-10-18T11:55:13.082Z,18.73
2022-10-18T11:57:47.501Z,19.14
2022-10-18T12:03:12.194Z,19.49
2022-10-18T12:05:42.351Z,19.29
2022-10-18T12:08:14.361Z,19.28
2022-10-18T12:11:03.840Z,19.42
2022-10-18T12:13:38.099Z,19.24
2022-10-18T12:16:08.070Z,19.47
2022-10-18T12:18:43.347Z,19.51
2022-10-18T12:21:13.210Z,19.30
2022-10-18T12:23:50.566Z,19.55
2022-10-18T12:26:20.572Z,19.34
2022-10-18T12:28:55.889Z,19.11
2022-10-18T12:31:27.483Z,18.83
2022-10-18T12:33:59.459Z,18.43
2022-10-18T12:36:45.258Z,18.81
2022-10-18T12:39:29.062Z,18.94
2022-10-18T12:42:19.820Z,19.07
2022-10-18T12:44:48.745Z,19.17
2022-10-18T12:47:24.101Z,18.59
2022-10-18T12:49:58.959Z,18.60
2022-10-18T12:52:29.172Z,18.67
2022-10-18T12:55:07.360Z,18.78
2022-10-18T12:58:21.852Z,18.66
2022-10-18T13:00:55.076Z,19.55
2022-10-18T13:03:54.520Z,19.11
2022-10-18T13:06:24.017Z,19.15
2022-10-18T13:09:20.682Z,19.44
2022-10-18T13:11:48.852Z,19.11
2022-10-18T13:15:05.684Z,18.64
2022-10-18T13:17:50.501Z,19.15
2022-10-18T13:20:27.318Z,18.87
2022-10-18T13:23:08.351Z,18.78
2022-10-18T13:25:50.084Z,19.29
2022-10-18T13:28:30.718Z,18.94
2022-10-18T13:31:10.045Z,18.61
2022-10-18T13:33:40.056Z,18.30
2022-10-18T13:36:23.228Z,18.67
2022-10-18T13:39:03.276Z,18.61
2022-10-18T13:41:35.330Z,18.32
2022-10-18T13:44:25.302Z,18.35
2022-10-18T13:47:38.205Z,18.76
2022-10-18T13:50:36.432Z,18.23
2022-10-18T13:53:28.850Z,18.33
2022-10-18T13:56:11.501Z,18.40
2022-10-18T13:59:05.888Z,18.27
2022-10-18T14:01:50.692Z,17.89
2022-10-18T14:04:44.111Z,18.38
2022-10-18T14:07:12.983Z,18.98
2022-10-18T14:09:48.884Z,18.76
2022-10-18T14:12:27.606Z,18.67
2022-10-18T14:15:00.595Z,18.78
2022-10-18T14:17:35.178Z,18.51
2022-10-18T14:20:17.771Z,18.31
2022-10-18T14:22:50.719Z,18.17
2022-10-18T14:25:26.822Z,18.58
2022-10-18T14:28:08.937Z,18.70
2022-10-18T14:30:52.695Z,18.78
2022-10-18T14:33:33.924Z,18.69
2022-10-18T14:36:10.423Z,18.99
2022-10-18T14:38:48.867Z,18.84
2022-10-18T14:41:19.208Z,18.55
2022-10-18T14:43:48.220Z,18.54
2022-10-18T14:46:25.998Z,19.10
2022-10-18T14:48:56.388Z,19.21
2022-10-18T14:51:26.179Z,18.96
2022-10-18T14:53:54.612Z,18.68
2022-10-18T14:56:27.326Z,18.87
2022-10-18T14:58:56.991Z,19.04
2022-10-18T15:01:29.283Z,18.98
2022-10-18T15:03:58.895Z,18.41
2022-10-18T15:06:28.483Z,18.73
2022-10-18T15:08:59.306Z,18.32
2022-10-18T15:11:28.596Z,18.58
2022-10-18T15:13:59.147Z,18.24
2022-10-18T15:16:30.065Z,18.14
2022-10-18T15:19:06.214Z,18.49
2022-10-18T15:21:36.444Z,18.00
2022-10-18T15:24:21.024Z,18.00
2022-10-18T15:26:50.828Z,17.98
2022-10-18T15:29:20.676Z,18.28
2022-10-18T15:31:49.348Z,18.14
2022-10-18T15:34:20.603Z,18.23
2022-10-18T15:36:51.131Z,18.57
2022-10-18T15:39:21.441Z,18.63
2022-10-18T15:41:50.785Z,18.52
2022-10-18T15:44:27.837Z,18.48
2022-10-18T15:46:58.159Z,18.13
2022-10-18T15:49:58.167Z,17.97
2022-10-18T15:52:39.621Z,18.02
2022-10-18T15:55:46.671Z,17.78
2022-10-18T15:58:22.232Z,18.00
2022-10-18T16:00:51.614Z,18.11
2022-10-18T16:03:22.053Z,17.93
2022-10-18T16:05:49.919Z,18.07
2022-10-18T16:08:25.221Z,18.35
2022-10-18T16:10:53.084Z,17.86
2022-10-18T16:13:20.944Z,17.97
2022-10-18T16:15:48.825Z,18.04
2022-10-18T16:18:19.129Z,18.03
2022-10-18T16:20:47.534Z,17.90
2022-10-18T16:23:18.853Z,17.80
2022-10-18T16:25:48.874Z,18.06
2022-10-18T16:28:18.995Z,18.14
2022-10-18T16:30:56.082Z,18.21
2022-10-18T16:33:24.634Z,18.29
2022-10-18T16:35:53.070Z,18.18
2022-10-18T16:38:31.105Z,18.00
2022-10-18T16:41:04.502Z,17.95
2022-10-18T16:43:32.459Z,17.95
2022-10-18T16:46:00.460Z,17.89
2022-10-18T16:48:28.947Z,17.88
2022-10-18T16:50:57.962Z,17.86
2022-10-18T16:53:26.295Z,17.53
2022-10-18T16:55:56.264Z,17.15
2022-10-18T16:58:26.103Z,17.70
2022-10-18T17:00:54.322Z,17.93
2022-10-18T17:03:22.088Z,17.69
2022-10-18T17:05:49.840Z,17.80
2022-10-18T17:08:20.336Z,17.76
2022-10-18T17:10:49.650Z,17.73
2022-10-18T17:13:17.826Z,17.46
2022-10-18T17:15:47.183Z,17.43
2022-10-18T17:18:18.448Z,17.52
2022-10-18T17:20:46.922Z,17.58
2022-10-18T17:23:14.807Z,17.52
2022-10-18T17:25:57.538Z,17.55
2022-10-18T17:28:32.757Z,17.48
2022-10-18T17:31:01.943Z,17.66
2022-10-18T17:33:29.660Z,17.32
2022-10-18T17:35:57.362Z,17.54
2022-10-18T17:38:25.215Z,17.42
2022-10-18T17:40:53.369Z,17.35
2022-10-18T17:43:21.302Z,17.34
2022-10-18T17:45:49.233Z,17.64
2022-10-18T17:48:18.744Z,17.43
2022-10-18T17:50:46.625Z,17.32
2022-10-18T17:53:16.616Z,16.99
2022-10-18T17:55:44.377Z,17.20
2022-10-18T17:58:12.074Z,17.38
2022-10-18T18:00:40.109Z,17.28
2022-10-18T18:03:07.865Z,17.35
2022-10-18T18:05:36.977Z,17.48
2022-10-18T18:08:04.760Z,17.54
2022-10-18T18:10:33.651Z,17.75
2022-10-18T18:13:01.634Z,17.50
2022-10-18T18:15:29.373Z,17.40
2022-10-18T18:17:58.094Z,17.41
2022-10-18T18:20:26.164Z,17.48
2022-10-18T18:22:55.518Z,17.03
2022-10-18T18:25:23.298Z,16.79
2022-10-18T18:27:51.011Z,17.43
2022-10-18T18:30:19.000Z,17.67
2022-10-18T18:32:46.710Z,17.61
2022-10-18T18:35:14.518Z,17.45
2022-10-18T18:37:42.346Z,17.46
2022-10-18T18:40:12.020Z,17.35
2022-10-18T18:42:39.751Z,17.35
2022-10-18T18:45:08.214Z,17.45
2022-10-18T18:47:36.250Z,17.60
2022-10-18T18:50:04.042Z,17.44
2022-10-18T18:52:32.021Z,17.49
2022-10-18T18:55:00.036Z,17.20
2022-10-18T18:57:29.313Z,17.57
2022-10-18T18:59:57.086Z,17.46
2022-10-18T19:02:24.824Z,17.24
2022-10-18T19:04:52.606Z,17.05
2022-10-18T19:07:20.424Z,17.35
2022-10-18T19:09:50.532Z,17.30
2022-10-18T19:12:20.608Z,17.11
2022-10-18T19:14:50.625Z,17.42
2022-10-18T19:17:18.508Z,17.07
2022-10-18T19:19:46.725Z,17.24
2022-10-18T19:22:14.621Z,16.99
2022-10-18T19:24:42.843Z,16.97
2022-10-18T19:27:12.531Z,16.85
2022-10-18T19:29:42.109Z,16.88
2022-10-18T19:32:13.463Z,17.29
2022-10-18T19:34:41.670Z,16.90
2022-10-18T19:37:10.680Z,17.45
2022-10-18T19:39:39.264Z,17.37
2022-10-18T19:42:09.844Z,17.28
2022-10-18T19:44:38.621Z,17.29
2022-10-18T19:47:08.200Z,17.19
2022-10-18T19:49:37.617Z,17.31
2022-10-18T19:52:05.618Z,17.23
2022-10-18T19:54:33.921Z,17.12
2022-10-18T19:57:02.172Z,16.71
2022-10-18T19:59:30.343Z,16.93
2022-10-18T20:02:00.491Z,16.67
2022-10-18T20:04:34.228Z,16.58
2022-10-18T20:07:03.949Z,16.56
2022-10-18T20:09:32.448Z,16.60
2022-10-18T20:12:00.184Z,16.83
2022-10-18T20:14:27.957Z,16.97
2022-10-18T20:16:56.327Z,17.07
2022-10-18T20:19:24.250Z,16.97
2022-10-18T20:21:52.393Z,17.04
2022-10-18T20:24:21.540Z,17.04
2022-10-18T20:26:49.309Z,17.15
2022-10-18T20:29:17.198Z,17.07
2022-10-18T20:31:45.073Z,17.00
2022-10-18T20:34:13.541Z,17.03
2022-10-18T20:36:42.914Z,17.19
2022-10-18T20:39:10.936Z,16.94
2022-10-18T20:41:41.707Z,16.76
2022-10-18T20:44:13.923Z,16.36
2022-10-18T20:46:42.082Z,16.55
2022-10-18T20:49:13.558Z,16.78
2022-10-18T20:51:41.903Z,16.37
2022-10-18T20:54:10.500Z,16.29
2022-10-18T20:56:40.680Z,16.39
2022-10-18T20:59:10.232Z,16.42
2022-10-18T21:01:39.657Z,16.61
2022-10-18T21:04:09.651Z,16.28
2022-10-18T21:06:40.190Z,16.17
2022-10-18T21:09:09.556Z,16.58
2022-10-18T21:11:38.949Z,16.63
2022-10-18T21:14:08.789Z,16.13
2022-10-18T21:16:37.047Z,16.50
2022-10-18T21:19:05.294Z,16.39
2022-10-18T21:21:33.685Z,16.30
2022-10-18T21:24:04.059Z,16.32
2022-10-18T21:26:35.274Z,16.32
2022-10-18T21:29:03.473Z,16.45
2022-10-18T21:31:34.722Z,16.49
2022-10-18T21:34:04.153Z,16.43
2022-10-18T21:36:33.817Z,16.36
2022-10-18T21:39:02.799Z,15.88
2022-10-18T21:41:32.104Z,16.24
2022-10-18T21:43:59.869Z,16.44
2022-10-18T21:46:27.947Z,16.37
2022-10-18T21:48:58.401Z,16.43
2022-10-18T21:51:27.970Z,16.37
2022-10-18T21:53:57.938Z,16.43
2022-10-18T21:56:27.969Z,16.30
2022-10-18T21:58:56.532Z,16.26
2022-10-18T22:01:26.554Z,15.92
2022-10-18T22:03:56.204Z,15.87
2022-10-18T22:06:26.360Z,15.89
2022-10-18T22:08:56.232Z,15.95
2022-10-18T22:11:26.763Z,16.31
2022-10-18T22:13:55.296Z,16.17
2022-10-18T22:16:23.143Z,16.04
2022-10-18T22:18:52.041Z,15.42
2022-10-18T22:21:21.490Z,15.36
2022-10-18T22:23:52.601Z,15.29
2022-10-18T22:26:22.728Z,15.19
2022-10-18T22:28:56.114Z,15.13
2022-10-18T22:31:26.484Z,15.28
2022-10-18T22:33:55.503Z,15.22
2022-10-18T22:36:23.294Z,15.33
2022-10-18T22:38:52.676Z,15.66
2022-10-18T22:41:20.613Z,15.68
2022-10-18T22:43:48.393Z,15.52
2022-10-18T22:46:16.663Z,15.68
2022-10-18T22:48:45.366Z,15.71
2022-10-18T22:51:13.808Z,15.89
2022-10-18T22:53:42.286Z,16.09
2022-10-18T22:56:13.584Z,15.80
2022-10-18T22:58:41.267Z,15.87
2022-10-18T23:01:11.153Z,15.95
2022-10-18T23:03:39.811Z,15.89
2022-10-18T23:06:20.561Z,15.66
2022-10-18T23:08:48.731Z,15.67
2022-10-18T23:11:18.427Z,16.05
2022-10-18T23:13:46.967Z,16.23
2022-10-18T23:16:15.298Z,16.19
2022-10-18T23:18:43.075Z,15.81
2022-10-18T23:21:13.141Z,15.95
2022-10-18T23:23:42.905Z,15.90
2022-10-18T23:26:12.515Z,15.75
2022-10-18T23:28:43.228Z,15.88
2022-10-18T23:31:13.582Z,15.92
2022-10-18T23:33:41.767Z,15.93
2022-10-18T23:36:10.561Z,15.91
2022-10-18T23:38:40.043Z,15.81
2022-10-18T23:41:09.304Z,15.91
2022-10-18T23:43:37.699Z,16.01
2022-10-18T23:46:07.066Z,15.92
2022-10-18T23:48:35.128Z,15.66
2022-10-18T23:51:03.251Z,15.72
2022-10-18T23:53:31.330Z,15.66
2022-10-18T23:56:01.233Z,15.75
2022-10-18T23:58:31.435Z,15.30
